Sac River (Missouri), Route J (06919020)

StateMissouriLatestPoor (556 cfs)
RiverSac RiverRatingObservedEstimated
Updated2020-02-25 22:45 (37 minutes ago)Flood - The river is flooding. Obstacles can be treacherous or deadly. The river should be avoided at this stage for casual trips and definitely for the inexperienced. Trips should be attempted only with protective gear and equipment.Flood(none)4493
Discharge556 cfs (median: 1080 cfs)High - The river is high and potentially dangerous, especially for the young and / or inexperienced. Normal stream obstacles are sometimes difficult to navigate. Extended distances can be attempted, but canoe travel may not be advisable.High(none)1358
Height7.96 feetGood - Conditions are ideal for a canoe or kayak. Boats typically will drag on fewer than one-quarter of riffles, if at all, and portages are unnecessary or rare. Normal float lengths can be attempted without a problem.Good(none)1067
TrendFalling (falling over 24 hours)Low - River is low but can still be floated. Some riffles are okay but most come with significant dragging and might need a portage. Float lengths should be reduced to accommodate low flow, dragging, and portages.Low(none)931
USGSExternal icon USGS Site (External icon Google Maps)Poor - River is too low to float comfortably. Most or all riffles will drag or must be portaged and some obstacles (such as slick shelf rock) cause undue problems. Avoid the river at this stage for casual paddling trips.Poor(none)61

Trending Data

Plot Image

Trips for Sac River (Missouri), Route J (06919020)

DateStartEndDistanceConditionDischargeHeightFishingDetails

A total of 0 rows are displayed.

Condition Descriptions

Fishing Conditions

Fish Species

Notes

Classic Trip List

The classic River Trips application is still available for use. It is updated with the new system using a data retrofit. It is no longer maintained. The original River Trips application is no longer updated (as of 1 Dec 2016) but can be checked for errors or for the condition of the data before it was converted to the new system.

Gauge Data Table

ObservationHeightDischargeMaximum
Discharge
Minimum
Discharge
Mean
Discharge
P05P10P20P25P50
(Median)
P75P80P90P95
2020-02-25 22:45 7.96 556 5190 (2005) 53 (2014) 1340 66 71 143 182 1080 2030 2200 2940 4650
2020-02-25 21:45 8.00 567 5190 (2005) 53 (2014) 1340 66 71 143 182 1080 2030 2200 2940 4650
2020-02-25 20:45 8.04 578 5190 (2005) 53 (2014) 1340 66 71 143 182 1080 2030 2200 2940 4650
2020-02-25 19:45 8.08 590 5190 (2005) 53 (2014) 1340 66 71 143 182 1080 2030 2200 2940 4650
2020-02-25 18:45 8.13 604 5190 (2005) 53 (2014) 1340 66 71 143 182 1080 2030 2200 2940 4650
2020-02-25 17:45 8.19 621 5190 (2005) 53 (2014) 1340 66 71 143 182 1080 2030 2200 2940 4650
2020-02-25 16:45 8.26 641 5190 (2005) 53 (2014) 1340 66 71 143 182 1080 2030 2200 2940 4650
2020-02-25 15:45 8.33 662 5190 (2005) 53 (2014) 1340 66 71 143 182 1080 2030 2200 2940 4650
2020-02-25 14:45 8.41 685 5190 (2005) 53 (2014) 1340 66 71 143 182 1080 2030 2200 2940 4650
2020-02-25 13:45 8.50 713 5190 (2005) 53 (2014) 1340 66 71 143 182 1080 2030 2200 2940 4650
2020-02-25 12:45 8.60 743 5190 (2005) 53 (2014) 1340 66 71 143 182 1080 2030 2200 2940 4650
2020-02-25 11:45 8.72 781 5190 (2005) 53 (2014) 1340 66 71 143 182 1080 2030 2200 2940 4650
2020-02-25 10:45 8.86 825 5190 (2005) 53 (2014) 1340 66 71 143 182 1080 2030 2200 2940 4650
2020-02-25 09:45 9.03 881 5190 (2005) 53 (2014) 1340 66 71 143 182 1080 2030 2200 2940 4650
2020-02-25 08:45 9.23 948 5190 (2005) 53 (2014) 1340 66 71 143 182 1080 2030 2200 2940 4650
2020-02-25 07:45 9.47 1030 5190 (2005) 53 (2014) 1340 66 71 143 182 1080 2030 2200 2940 4650
2020-02-25 06:45 9.78 1140 5190 (2005) 53 (2014) 1340 66 71 143 182 1080 2030 2200 2940 4650
2020-02-25 05:45 10.16 1290 5190 (2005) 53 (2014) 1340 66 71 143 182 1080 2030 2200 2940 4650
2020-02-25 04:45 10.62 1470 5190 (2005) 53 (2014) 1340 66 71 143 182 1080 2030 2200 2940 4650
2020-02-25 03:45 11.19 1710 5190 (2005) 53 (2014) 1340 66 71 143 182 1080 2030 2200 2940 4650
2020-02-25 02:45 11.87 2070 5190 (2005) 53 (2014) 1340 66 71 143 182 1080 2030 2200 2940 4650
2020-02-25 01:45 12.65 2540 5190 (2005) 53 (2014) 1340 66 71 143 182 1080 2030 2200 2940 4650
2020-02-25 00:45 13.54 3140 5190 (2005) 53 (2014) 1340 66 71 143 182 1080 2030 2200 2940 4650
2020-02-24 23:45 14.51 3850 5230 (2005) 53 (2014) 1260 67 72 105 131 1000 2100 2370 2870 4040
2020-02-24 22:45 15.52 4650 5230 (2005) 53 (2014) 1260 67 72 105 131 1000 2100 2370 2870 4040
2020-02-24 21:45 16.31 5300 5230 (2005) 53 (2014) 1260 67 72 105 131 1000 2100 2370 2870 4040
2020-02-24 20:45 15.61 4730 5230 (2005) 53 (2014) 1260 67 72 105 131 1000 2100 2370 2870 4040
2020-02-24 19:45 14.14 3570 5230 (2005) 53 (2014) 1260 67 72 105 131 1000 2100 2370 2870 4040
2020-02-24 18:45 11.85 2060 5230 (2005) 53 (2014) 1260 67 72 105 131 1000 2100 2370 2870 4040
2020-02-24 17:45 9.91 1190 5230 (2005) 53 (2014) 1260 67 72 105 131 1000 2100 2370 2870 4040
2020-02-24 16:45 9.83 1160 5230 (2005) 53 (2014) 1260 67 72 105 131 1000 2100 2370 2870 4040
2020-02-24 15:45 9.69 1110 5230 (2005) 53 (2014) 1260 67 72 105 131 1000 2100 2370 2870 4040
2020-02-24 14:45 9.48 1030 5230 (2005) 53 (2014) 1260 67 72 105 131 1000 2100 2370 2870 4040
2020-02-24 13:45 9.24 952 5230 (2005) 53 (2014) 1260 67 72 105 131 1000 2100 2370 2870 4040
2020-02-24 12:45 9.01 874 5230 (2005) 53 (2014) 1260 67 72 105 131 1000 2100 2370 2870 4040
2020-02-24 11:45 8.75 790 5230 (2005) 53 (2014) 1260 67 72 105 131 1000 2100 2370 2870 4040
2020-02-24 10:45 8.47 704 5230 (2005) 53 (2014) 1260 67 72 105 131 1000 2100 2370 2870 4040
2020-02-24 09:45 8.19 621 5230 (2005) 53 (2014) 1260 67 72 105 131 1000 2100 2370 2870 4040
2020-02-24 08:45 7.94 551 5230 (2005) 53 (2014) 1260 67 72 105 131 1000 2100 2370 2870 4040
2020-02-24 07:45 7.68 481 5230 (2005) 53 (2014) 1260 67 72 105 131 1000 2100 2370 2870 4040
2020-02-24 06:45 7.42 415 5230 (2005) 53 (2014) 1260 67 72 105 131 1000 2100 2370 2870 4040
2020-02-24 05:45 7.17 356 5230 (2005) 53 (2014) 1260 67 72 105 131 1000 2100 2370 2870 4040
2020-02-24 04:45 6.97 310 5230 (2005) 53 (2014) 1260 67 72 105 131 1000 2100 2370 2870 4040
2020-02-24 03:45 6.83 274 5230 (2005) 53 (2014) 1260 67 72 105 131 1000 2100 2370 2870 4040
2020-02-24 02:45 6.74 253 5230 (2005) 53 (2014) 1260 67 72 105 131 1000 2100 2370 2870 4040
2020-02-24 01:45 6.67 238 5230 (2005) 53 (2014) 1260 67 72 105 131 1000 2100 2370 2870 4040
2020-02-24 00:45 6.66 235 5230 (2005) 53 (2014) 1260 67 72 105 131 1000 2100 2370 2870 4040
2020-02-23 23:45 6.70 244 10100 (1985) 54 (2014) 1460 68 72 105 159 956 2090 2410 3090 4860
2020-02-23 22:45 6.78 262 10100 (1985) 54 (2014) 1460 68 72 105 159 956 2090 2410 3090 4860
2020-02-23 21:45 6.91 294 10100 (1985) 54 (2014) 1460 68 72 105 159 956 2090 2410 3090 4860
2020-02-23 20:45 7.10 340 10100 (1985) 54 (2014) 1460 68 72 105 159 956 2090 2410 3090 4860
2020-02-23 19:45 7.36 401 10100 (1985) 54 (2014) 1460 68 72 105 159 956 2090 2410 3090 4860
2020-02-23 18:45 7.69 484 10100 (1985) 54 (2014) 1460 68 72 105 159 956 2090 2410 3090 4860
2020-02-23 17:45 8.13 604 10100 (1985) 54 (2014) 1460 68 72 105 159 956 2090 2410 3090 4860
2020-02-23 16:45 8.69 771 10100 (1985) 54 (2014) 1460 68 72 105 159 956 2090 2410 3090 4860
2020-02-23 15:45 9.36 993 10100 (1985) 54 (2014) 1460 68 72 105 159 956 2090 2410 3090 4860
2020-02-23 14:45 10.14 1280 10100 (1985) 54 (2014) 1460 68 72 105 159 956 2090 2410 3090 4860
2020-02-23 13:45 11.05 1650 10100 (1985) 54 (2014) 1460 68 72 105 159 956 2090 2410 3090 4860
2020-02-23 12:45 12.12 2220 10100 (1985) 54 (2014) 1460 68 72 105 159 956 2090 2410 3090 4860
2020-02-23 11:45 13.27 2950 10100 (1985) 54 (2014) 1460 68 72 105 159 956 2090 2410 3090 4860
2020-02-23 10:45 14.44 3790 10100 (1985) 54 (2014) 1460 68 72 105 159 956 2090 2410 3090 4860
2020-02-23 09:45 15.30 4470 10100 (1985) 54 (2014) 1460 68 72 105 159 956 2090 2410 3090 4860
2020-02-23 08:45 14.53 3860 10100 (1985) 54 (2014) 1460 68 72 105 159 956 2090 2410 3090 4860
2020-02-23 07:45 12.99 2760 10100 (1985) 54 (2014) 1460 68 72 105 159 956 2090 2410 3090 4860
2020-02-23 06:45 10.48 1410 10100 (1985) 54 (2014) 1460 68 72 105 159 956 2090 2410 3090 4860
2020-02-23 05:45 9.70 1110 10100 (1985) 54 (2014) 1460 68 72 105 159 956 2090 2410 3090 4860
2020-02-23 04:45 10.54 1440 10100 (1985) 54 (2014) 1460 68 72 105 159 956 2090 2410 3090 4860
2020-02-23 03:45 11.55 1890 10100 (1985) 54 (2014) 1460 68 72 105 159 956 2090 2410 3090 4860
2020-02-23 02:45 12.68 2560 10100 (1985) 54 (2014) 1460 68 72 105 159 956 2090 2410 3090 4860
2020-02-23 01:45 13.93 3420 10100 (1985) 54 (2014) 1460 68 72 105 159 956 2090 2410 3090 4860
2020-02-23 00:45 15.24 4420 10100 (1985) 54 (2014) 1460 68 72 105 159 956 2090 2410 3090 4860
2020-02-22 23:45 16.33 5320 4440 (2016) 55 (2014) 1290 67 72 90 125 1060 2080 2160 3190 3960
2020-02-22 22:45 16.11 5140 4440 (2016) 55 (2014) 1290 67 72 90 125 1060 2080 2160 3190 3960
2020-02-22 21:45 15.51 4640 4440 (2016) 55 (2014) 1290 67 72 90 125 1060 2080 2160 3190 3960
2020-02-22 20:45 14.55 3880 4440 (2016) 55 (2014) 1290 67 72 90 125 1060 2080 2160 3190 3960
2020-02-22 19:45 12.98 2760 4440 (2016) 55 (2014) 1290 67 72 90 125 1060 2080 2160 3190 3960
2020-02-22 18:45 10.47 1410 4440 (2016) 55 (2014) 1290 67 72 90 125 1060 2080 2160 3190 3960
2020-02-22 17:45 9.69 1110 4440 (2016) 55 (2014) 1290 67 72 90 125 1060 2080 2160 3190 3960
2020-02-22 16:45 10.54 1440 4440 (2016) 55 (2014) 1290 67 72 90 125 1060 2080 2160 3190 3960
2020-02-22 15:45 11.54 1880 4440 (2016) 55 (2014) 1290 67 72 90 125 1060 2080 2160 3190 3960
2020-02-22 14:45 12.67 2560 4440 (2016) 55 (2014) 1290 67 72 90 125 1060 2080 2160 3190 3960
2020-02-22 13:45 13.92 3410 4440 (2016) 55 (2014) 1290 67 72 90 125 1060 2080 2160 3190 3960
2020-02-22 12:45 15.21 4400 4440 (2016) 55 (2014) 1290 67 72 90 125 1060 2080 2160 3190 3960
2020-02-22 11:45 16.31 5300 4440 (2016) 55 (2014) 1290 67 72 90 125 1060 2080 2160 3190 3960
2020-02-22 10:45 16.08 5120 4440 (2016) 55 (2014) 1290 67 72 90 125 1060 2080 2160 3190 3960
2020-02-22 09:45 15.46 4600 4440 (2016) 55 (2014) 1290 67 72 90 125 1060 2080 2160 3190 3960
2020-02-22 08:45 14.51 3850 4440 (2016) 55 (2014) 1290 67 72 90 125 1060 2080 2160 3190 3960
2020-02-22 07:45 12.96 2750 4440 (2016) 55 (2014) 1290 67 72 90 125 1060 2080 2160 3190 3960
2020-02-22 06:45 10.44 1400 4440 (2016) 55 (2014) 1290 67 72 90 125 1060 2080 2160 3190 3960
2020-02-22 05:45 9.72 1120 4440 (2016) 55 (2014) 1290 67 72 90 125 1060 2080 2160 3190 3960
2020-02-22 04:45 10.57 1450 4440 (2016) 55 (2014) 1290 67 72 90 125 1060 2080 2160 3190 3960
2020-02-22 03:45 11.57 1900 4440 (2016) 55 (2014) 1290 67 72 90 125 1060 2080 2160 3190 3960
2020-02-22 02:45 12.71 2580 4440 (2016) 55 (2014) 1290 67 72 90 125 1060 2080 2160 3190 3960
2020-02-22 01:45 13.97 3450 4440 (2016) 55 (2014) 1290 67 72 90 125 1060 2080 2160 3190 3960
2020-02-22 00:45 15.27 4450 4440 (2016) 55 (2014) 1290 67 72 90 125 1060 2080 2160 3190 3960
2020-02-21 23:45 16.39 5370 4450 (2016) 57 (2014) 1100 66 72 91 131 530 1750 2060 3080 4110
2020-02-21 22:45 16.17 5190 4450 (2016) 57 (2014) 1100 66 72 91 131 530 1750 2060 3080 4110
2020-02-21 21:45 15.53 4660 4450 (2016) 57 (2014) 1100 66 72 91 131 530 1750 2060 3080 4110
2020-02-21 20:45 14.59 3910 4450 (2016) 57 (2014) 1100 66 72 91 131 530 1750 2060 3080 4110
2020-02-21 19:45 13.03 2790 4450 (2016) 57 (2014) 1100 66 72 91 131 530 1750 2060 3080 4110
2020-02-21 18:45 10.52 1430 4450 (2016) 57 (2014) 1100 66 72 91 131 530 1750 2060 3080 4110
2020-02-21 17:45 9.69 1110 4450 (2016) 57 (2014) 1100 66 72 91 131 530 1750 2060 3080 4110
2020-02-21 16:45 10.54 1440 4450 (2016) 57 (2014) 1100 66 72 91 131 530 1750 2060 3080 4110
2020-02-21 15:45 11.53 1870 4450 (2016) 57 (2014) 1100 66 72 91 131 530 1750 2060 3080 4110
2020-02-21 14:45 12.66 2550 4450 (2016) 57 (2014) 1100 66 72 91 131 530 1750 2060 3080 4110
2020-02-21 13:45 13.90 3390 4450 (2016) 57 (2014) 1100 66 72 91 131 530 1750 2060 3080 4110
2020-02-21 12:45 15.20 4390 4450 (2016) 57 (2014) 1100 66 72 91 131 530 1750 2060 3080 4110
2020-02-21 11:45 16.32 5310 4450 (2016) 57 (2014) 1100 66 72 91 131 530 1750 2060 3080 4110
2020-02-21 10:45 16.09 5130 4450 (2016) 57 (2014) 1100 66 72 91 131 530 1750 2060 3080 4110
2020-02-21 09:45 15.46 4600 4450 (2016) 57 (2014) 1100 66 72 91 131 530 1750 2060 3080 4110
2020-02-21 08:45 14.51 3850 4450 (2016) 57 (2014) 1100 66 72 91 131 530 1750 2060 3080 4110
2020-02-21 07:45 12.95 2740 4450 (2016) 57 (2014) 1100 66 72 91 131 530 1750 2060 3080 4110
2020-02-21 06:45 10.41 1380 4450 (2016) 57 (2014) 1100 66 72 91 131 530 1750 2060 3080 4110
2020-02-21 05:45 9.71 1120 4450 (2016) 57 (2014) 1100 66 72 91 131 530 1750 2060 3080 4110
2020-02-21 04:45 10.56 1440 4450 (2016) 57 (2014) 1100 66 72 91 131 530 1750 2060 3080 4110
2020-02-21 03:45 11.56 1890 4450 (2016) 57 (2014) 1100 66 72 91 131 530 1750 2060 3080 4110
2020-02-21 02:45 12.69 2570 4450 (2016) 57 (2014) 1100 66 72 91 131 530 1750 2060 3080 4110
2020-02-21 01:45 13.94 3420 4450 (2016) 57 (2014) 1100 66 72 91 131 530 1750 2060 3080 4110
2020-02-21 00:45 15.24 4420 4450 (2016) 57 (2014) 1100 66 72 91 131 530 1750 2060 3080 4110
2020-02-20 23:45 16.35 5340 4440 (2016) 58 (2014) 966 66 71 89 104 288 1490 1890 3060 3690
2020-02-20 22:45 16.11 5140 4440 (2016) 58 (2014) 966 66 71 89 104 288 1490 1890 3060 3690
2020-02-20 21:45 15.50 4640 4440 (2016) 58 (2014) 966 66 71 89 104 288 1490 1890 3060 3690
2020-02-20 20:45 14.57 3890 4440 (2016) 58 (2014) 966 66 71 89 104 288 1490 1890 3060 3690
2020-02-20 19:45 13.05 2800 4440 (2016) 58 (2014) 966 66 71 89 104 288 1490 1890 3060 3690
2020-02-20 18:45 10.60 1460 4440 (2016) 58 (2014) 966 66 71 89 104 288 1490 1890 3060 3690
2020-02-20 17:45 9.74 1130 4440 (2016) 58 (2014) 966 66 71 89 104 288 1490 1890 3060 3690
2020-02-20 16:45 10.57 1450 4440 (2016) 58 (2014) 966 66 71 89 104 288 1490 1890 3060 3690
2020-02-20 15:45 11.57 1900 4440 (2016) 58 (2014) 966 66 71 89 104 288 1490 1890 3060 3690
2020-02-20 14:45 12.69 2570 4440 (2016) 58 (2014) 966 66 71 89 104 288 1490 1890 3060 3690
2020-02-20 13:45 13.94 3420 4440 (2016) 58 (2014) 966 66 71 89 104 288 1490 1890 3060 3690
2020-02-20 12:45 15.24 4420 4440 (2016) 58 (2014) 966 66 71 89 104 288 1490 1890 3060 3690
2020-02-20 11:45 16.34 5330 4440 (2016) 58 (2014) 966 66 71 89 104 288 1490 1890 3060 3690
2020-02-20 10:45 16.09 5130 4440 (2016) 58 (2014) 966 66 71 89 104 288 1490 1890 3060 3690
2020-02-20 09:45 15.42 4570 4440 (2016) 58 (2014) 966 66 71 89 104 288 1490 1890 3060 3690
2020-02-20 08:45 14.41 3770 4440 (2016) 58 (2014) 966 66 71 89 104 288 1490 1890 3060 3690
2020-02-20 07:45 12.73 2600 4440 (2016) 58 (2014) 966 66 71 89 104 288 1490 1890 3060 3690
2020-02-20 06:45 9.79 1150 4440 (2016) 58 (2014) 966 66 71 89 104 288 1490 1890 3060 3690
2020-02-20 05:45 9.06 891 4440 (2016) 58 (2014) 966 66 71 89 104 288 1490 1890 3060 3690
2020-02-20 04:45 9.77 1140 4440 (2016) 58 (2014) 966 66 71 89 104 288 1490 1890 3060 3690
2020-02-20 03:45 10.63 1470 4440 (2016) 58 (2014) 966 66 71 89 104 288 1490 1890 3060 3690
2020-02-20 02:45 11.63 1930 4440 (2016) 58 (2014) 966 66 71 89 104 288 1490 1890 3060 3690
2020-02-20 01:45 12.76 2610 4440 (2016) 58 (2014) 966 66 71 89 104 288 1490 1890 3060 3690
2020-02-20 00:45 14.01 3470 4440 (2016) 58 (2014) 966 66 71 89 104 288 1490 1890 3060 3690
2020-02-19 23:45 15.32 4490 4420 (2016) 57 (2014) 1050 68 74 98 125 555 2010 2380 2960 3590
2020-02-19 22:45 16.43 5400 4420 (2016) 57 (2014) 1050 68 74 98 125 555 2010 2380 2960 3590
2020-02-19 21:45 16.26 5260 4420 (2016) 57 (2014) 1050 68 74 98 125 555 2010 2380 2960 3590
2020-02-19 20:45 15.69 4790 4420 (2016) 57 (2014) 1050 68 74 98 125 555 2010 2380 2960 3590
2020-02-19 19:45 14.82 4090 4420 (2016) 57 (2014) 1050 68 74 98 125 555 2010 2380 2960 3590
2020-02-19 18:45 13.49 3100 4420 (2016) 57 (2014) 1050 68 74 98 125 555 2010 2380 2960 3590
2020-02-19 17:45 11.54 1880 4420 (2016) 57 (2014) 1050 68 74 98 125 555 2010 2380 2960 3590
2020-02-19 16:45 10.78 1530 4420 (2016) 57 (2014) 1050 68 74 98 125 555 2010 2380 2960 3590
2020-02-19 15:45 11.80 2030 4420 (2016) 57 (2014) 1050 68 74 98 125 555 2010 2380 2960 3590
2020-02-19 14:45 12.94 2730 4420 (2016) 57 (2014) 1050 68 74 98 125 555 2010 2380 2960 3590
2020-02-19 13:45 14.20 3610 4420 (2016) 57 (2014) 1050 68 74 98 125 555 2010 2380 2960 3590
2020-02-19 12:45 15.49 4630 4420 (2016) 57 (2014) 1050 68 74 98 125 555 2010 2380 2960 3590
2020-02-19 11:45 16.49 5450 4420 (2016) 57 (2014) 1050 68 74 98 125 555 2010 2380 2960 3590
2020-02-19 10:45 16.12 5150 4420 (2016) 57 (2014) 1050 68 74 98 125 555 2010 2380 2960 3590
2020-02-19 09:45 15.47 4610 4420 (2016) 57 (2014) 1050 68 74 98 125 555 2010 2380 2960 3590
2020-02-19 08:45 14.49 3830 4420 (2016) 57 (2014) 1050 68 74 98 125 555 2010 2380 2960 3590
2020-02-19 07:45 12.89 2700 4420 (2016) 57 (2014) 1050 68 74 98 125 555 2010 2380 2960 3590
2020-02-19 06:45 10.35 1360 4420 (2016) 57 (2014) 1050 68 74 98 125 555 2010 2380 2960 3590
2020-02-19 05:45 9.74 1130 4420 (2016) 57 (2014) 1050 68 74 98 125 555 2010 2380 2960 3590
2020-02-19 04:45 10.60 1460 4420 (2016) 57 (2014) 1050 68 74 98 125 555 2010 2380 2960 3590
2020-02-19 03:45 11.61 1920 4420 (2016) 57 (2014) 1050 68 74 98 125 555 2010 2380 2960 3590
2020-02-19 02:45 12.75 2610 4420 (2016) 57 (2014) 1050 68 74 98 125 555 2010 2380 2960 3590
2020-02-19 01:45 14.01 3470 4420 (2016) 57 (2014) 1050 68 74 98 125 555 2010 2380 2960 3590
2020-02-19 00:45 15.32 4490 4420 (2016) 57 (2014) 1050 68 74 98 125 555 2010 2380 2960 3590
2020-02-18 23:45 16.43 5400 4360 (2016) 57 (2014) 1130 66 76 108 126 582 1730 2400 3160 3960
2020-02-18 22:45 16.20 5220 4360 (2016) 57 (2014) 1130 66 76 108 126 582 1730 2400 3160 3960
2020-02-18 21:45 15.59 4710 4360 (2016) 57 (2014) 1130 66 76 108 126 582 1730 2400 3160 3960
2020-02-18 20:45 14.68 3980 4360 (2016) 57 (2014) 1130 66 76 108 126 582 1730 2400 3160 3960
2020-02-18 19:45 13.17 2880 4360 (2016) 57 (2014) 1130 66 76 108 126 582 1730 2400 3160 3960
2020-02-18 18:45 10.78 1530 4360 (2016) 57 (2014) 1130 66 76 108 126 582 1730 2400 3160 3960
2020-02-18 17:45 9.83 1160 4360 (2016) 57 (2014) 1130 66 76 108 126 582 1730 2400 3160 3960
2020-02-18 16:45 10.66 1480 4360 (2016) 57 (2014) 1130 66 76 108 126 582 1730 2400 3160 3960
2020-02-18 15:45 11.65 1940 4360 (2016) 57 (2014) 1130 66 76 108 126 582 1730 2400 3160 3960
2020-02-18 14:45 12.78 2630 4360 (2016) 57 (2014) 1130 66 76 108 126 582 1730 2400 3160 3960
2020-02-18 13:45 14.02 3480 4360 (2016) 57 (2014) 1130 66 76 108 126 582 1730 2400 3160 3960
2020-02-18 12:45 15.33 4500 4360 (2016) 57 (2014) 1130 66 76 108 126 582 1730 2400 3160 3960
2020-02-18 11:45 16.43 5400 4360 (2016) 57 (2014) 1130 66 76 108 126 582 1730 2400 3160 3960
2020-02-18 10:45 16.19 5210 4360 (2016) 57 (2014) 1130 66 76 108 126 582 1730 2400 3160 3960
2020-02-18 09:45 15.55 4680 4360 (2016) 57 (2014) 1130 66 76 108 126 582 1730 2400 3160 3960
2020-02-18 08:45 14.60 3920 4360 (2016) 57 (2014) 1130 66 76 108 126 582 1730 2400 3160 3960
2020-02-18 07:45 13.07 2820 4360 (2016) 57 (2014) 1130 66 76 108 126 582 1730 2400 3160 3960
2020-02-18 06:45 10.64 1480 4360 (2016) 57 (2014) 1130 66 76 108 126 582 1730 2400 3160 3960
2020-02-18 05:45 9.79 1150 4360 (2016) 57 (2014) 1130 66 76 108 126 582 1730 2400 3160 3960
2020-02-18 04:45 10.62 1470 4360 (2016) 57 (2014) 1130 66 76 108 126 582 1730 2400 3160 3960
2020-02-18 03:45 11.59 1910 4360 (2016) 57 (2014) 1130 66 76 108 126 582 1730 2400 3160 3960
2020-02-18 02:45 12.71 2580 4360 (2016) 57 (2014) 1130 66 76 108 126 582 1730 2400 3160 3960
2020-02-18 01:45 13.94 3420 4360 (2016) 57 (2014) 1130 66 76 108 126 582 1730 2400 3160 3960
2020-02-18 00:45 15.22 4410 4360 (2016) 57 (2014) 1130 66 76 108 126 582 1730 2400 3160 3960

A total of 191 rows are displayed for years 1974 through 2019.